Time;durP1;ratioP1;P1;durP2;ratioP2;P2;SDS_P1;SDS_P2;PMS_P1;PMS_P2;Temp;Humidity;BMP_temperature;BMP_pressure;BME280_temperature;BME280_humidity;BME280_pressure;Samples;Min_cycle;Max_cycle;Signal;HPM_P1;HPM_P2
2023/05/20 00:02:11;;;;;;;4.80;4.40;;;15.10;99.90;;;;;;5048483;28;20207;-79
2023/05/20 00:04:39;;;;;;;4.70;4.30;;;15.10;99.90;;;;;;5044766;28;20185;-78
2023/05/20 00:07:05;;;;;;;4.73;4.43;;;15.00;99.90;;;;;;5037004;28;20623;-80
2023/05/20 00:09:31;;;;;;;4.43;4.03;;;14.90;99.90;;;;;;5035447;28;20235;-78
2023/05/20 00:11:56;;;;;;;4.63;4.30;;;14.90;99.90;;;;;;5035423;28;20255;-79
2023/05/20 00:14:22;;;;;;;4.93;4.53;;;14.90;99.90;;;;;;5034982;28;20221;-78
2023/05/20 00:16:48;;;;;;;5.07;4.33;;;14.80;99.90;;;;;;5034867;28;20565;-80
2023/05/20 00:19:13;;;;;;;5.13;4.73;;;14.90;99.90;;;;;;5035406;28;20176;-79
2023/05/20 00:21:39;;;;;;;6.00;4.80;;;14.80;99.90;;;;;;5035405;28;20287;-80
2023/05/20 00:24:05;;;;;;;4.93;4.47;;;14.80;99.90;;;;;;5046831;28;20177;-80
2023/05/20 00:26:31;;;;;;;5.20;4.70;;;14.90;99.90;;;;;;5040655;28;20629;-79
2023/05/20 00:28:56;;;;;;;5.20;4.80;;;14.90;99.90;;;;;;5034923;28;20580;-80
2023/05/20 00:31:22;;;;;;;5.00;4.60;;;14.80;99.90;;;;;;5033603;28;20181;-79
2023/05/20 00:33:48;;;;;;;5.43;4.93;;;14.80;99.90;;;;;;5035618;28;20195;-78
2023/05/20 00:36:14;;;;;;;5.17;4.60;;;14.80;99.90;;;;;;5033759;28;20188;-78
2023/05/20 00:38:39;;;;;;;4.90;4.40;;;14.80;99.90;;;;;;5036376;28;20201;-79
2023/05/20 00:41:05;;;;;;;7.07;4.80;;;14.80;99.90;;;;;;5041415;28;20184;-79
2023/05/20 00:43:31;;;;;;;5.17;4.70;;;14.80;99.90;;;;;;5035449;28;20242;-78
2023/05/20 00:45:57;;;;;;;5.20;4.80;;;14.80;99.90;;;;;;5034344;28;20544;-80
2023/05/20 00:48:23;;;;;;;4.60;4.20;;;14.80;99.90;;;;;;5034898;28;20237;-80
2023/05/20 00:50:49;;;;;;;4.83;4.47;;;14.80;99.90;;;;;;5038086;28;20181;-79
2023/05/20 00:53:17;;;;;;;4.80;4.40;;;14.70;99.90;;;;;;5036992;28;20168;-78
2023/05/20 00:55:44;;;;;;;5.00;4.60;;;14.70;99.90;;;;;;5034353;28;20170;-80
2023/05/20 00:58:10;;;;;;;6.37;4.57;;;14.70;99.90;;;;;;5032030;28;20176;-79
2023/05/20 01:00:36;;;;;;;5.00;4.60;;;14.60;99.90;;;;;;5034199;28;20181;-81
2023/05/20 01:03:02;;;;;;;4.80;4.50;;;14.60;99.90;;;;;;5034061;28;20225;-79
2023/05/20 01:05:28;;;;;;;4.90;4.53;;;14.60;99.90;;;;;;5033575;28;20180;-80
2023/05/20 01:07:54;;;;;;;4.90;4.50;;;14.60;99.90;;;;;;5034206;28;20270;-78
2023/05/20 01:10:24;;;;;;;4.80;4.40;;;14.70;99.90;;;;;;5033863;28;20216;-79
2023/05/20 01:12:54;;;;;;;5.17;4.67;;;14.70;99.90;;;;;;5033086;28;20170;-80
2023/05/20 01:15:23;;;;;;;4.93;4.50;;;14.70;99.90;;;;;;5034480;28;20156;-80
2023/05/20 01:17:56;;;;;;;5.00;4.60;;;14.70;99.90;;;;;;5033766;28;20603;-79
2023/05/20 01:20:23;;;;;;;5.00;4.60;;;14.80;99.90;;;;;;5034468;28;20687;-80
2023/05/20 01:22:53;;;;;;;5.10;4.70;;;14.70;99.90;;;;;;5038533;28;20208;-80
2023/05/20 01:25:19;;;;;;;5.03;4.63;;;14.70;99.90;;;;;;5038245;28;20280;-79
2023/05/20 01:27:47;;;;;;;7.00;4.53;;;14.70;99.90;;;;;;5043406;28;20173;-79
2023/05/20 01:30:14;;;;;;;4.80;4.40;;;14.70;99.90;;;;;;5038933;28;20963;-80
2023/05/20 01:33:00;;;;;;;5.37;4.87;;;14.70;99.90;;;;;;5033519;28;20538;-80
2023/05/20 01:35:26;;;;;;;5.17;4.77;;;14.60;99.90;;;;;;5033592;28;20161;-81
2023/05/20 01:37:52;;;;;;;4.37;4.03;;;14.50;99.90;;;;;;5033409;28;20223;-80
2023/05/20 01:40:18;;;;;;;4.63;4.33;;;14.50;99.90;;;;;;5044280;28;20169;-79
2023/05/20 01:42:45;;;;;;;5.20;4.80;;;14.50;99.90;;;;;;5033433;28;20573;-80
2023/05/20 01:45:11;;;;;;;4.77;4.37;;;14.60;99.90;;;;;;5033015;28;20248;-79
2023/05/20 01:47:37;;;;;;;5.10;4.70;;;14.60;99.90;;;;;;5031782;28;20642;-80
2023/05/20 01:50:03;;;;;;;5.20;4.33;;;14.60;99.90;;;;;;5033101;28;20201;-79
2023/05/20 01:52:30;;;;;;;5.10;4.60;;;14.60;99.90;;;;;;5033518;28;20186;-81
2023/05/20 01:54:56;;;;;;;5.50;5.00;;;14.60;99.90;;;;;;5033285;28;20215;-80
2023/05/20 01:57:22;;;;;;;5.53;5.07;;;14.60;99.90;;;;;;5032834;28;20173;-80
2023/05/20 01:59:49;;;;;;;5.03;4.53;;;14.50;99.90;;;;;;5032859;28;20180;-81
2023/05/20 02:02:15;;;;;;;5.90;4.93;;;14.50;99.90;;;;;;5032916;28;20683;-80
2023/05/20 02:04:46;;;;;;;5.73;4.73;;;14.50;99.90;;;;;;5032822;28;20575;-81
2023/05/20 02:07:13;;;;;;;4.83;4.00;;;14.50;99.90;;;;;;5042550;28;20174;-79
2023/05/20 02:09:39;;;;;;;5.00;4.53;;;14.60;99.90;;;;;;5035642;28;20223;-81
2023/05/20 02:12:06;;;;;;;4.77;4.33;;;14.60;99.90;;;;;;5035889;28;20694;-81
2023/05/20 02:14:32;;;;;;;4.60;4.20;;;14.60;99.90;;;;;;5040774;28;20267;-83
2023/05/20 02:16:57;;;;;;;4.83;4.43;;;14.60;99.90;;;;;;5031808;28;20219;-79
2023/05/20 02:19:23;;;;;;;4.67;4.17;;;14.60;99.90;;;;;;5032868;28;20644;-81
2023/05/20 02:21:49;;;;;;;5.30;4.80;;;14.60;99.90;;;;;;5032962;28;20208;-80
2023/05/20 02:24:16;;;;;;;7.33;4.27;;;14.50;99.90;;;;;;5035282;28;20187;-81
2023/05/20 02:26:43;;;;;;;4.33;4.03;;;14.50;99.90;;;;;;5036394;28;20168;-81
2023/05/20 02:29:09;;;;;;;5.03;4.53;;;14.60;99.90;;;;;;5032421;28;20189;-80
2023/05/20 02:31:34;;;;;;;5.30;4.80;;;14.50;99.90;;;;;;5032534;28;20184;-80
2023/05/20 02:34:00;;;;;;;6.13;4.30;;;14.50;99.90;;;;;;5033001;28;20196;-81
2023/05/20 02:36:26;;;;;;;5.03;4.17;;;14.50;99.90;;;;;;5032816;28;20169;-81
2023/05/20 02:38:55;;;;;;;4.93;4.53;;;14.50;99.90;;;;;;5031440;28;20177;-82
2023/05/20 02:41:21;;;;;;;4.80;4.40;;;14.50;99.90;;;;;;5033191;28;20675;-82
2023/05/20 02:43:47;;;;;;;5.83;4.77;;;14.50;99.90;;;;;;5032480;28;20194;-80
2023/05/20 02:46:14;;;;;;;4.43;4.03;;;14.50;99.90;;;;;;5032548;28;20177;-81
2023/05/20 02:48:40;;;;;;;4.73;4.33;;;14.50;99.90;;;;;;5032958;28;20172;-82
2023/05/20 02:51:06;;;;;;;4.83;4.50;;;14.50;99.90;;;;;;5034987;28;20177;-79
2023/05/20 02:53:32;;;;;;;4.70;4.40;;;14.50;99.90;;;;;;5039913;28;20180;-79
2023/05/20 02:55:58;;;;;;;5.30;4.27;;;14.60;99.90;;;;;;5036624;28;20521;-79
2023/05/20 02:58:25;;;;;;;4.73;4.33;;;14.60;99.90;;;;;;5032674;28;20234;-79
2023/05/20 03:00:56;;;;;;;5.13;4.73;;;14.60;99.90;;;;;;5032545;28;20169;-80
2023/05/20 03:03:22;;;;;;;4.53;4.20;;;14.60;99.90;;;;;;5032332;28;20206;-79
2023/05/20 03:05:49;;;;;;;4.20;3.83;;;14.60;99.90;;;;;;5031817;28;20179;-81
2023/05/20 03:08:14;;;;;;;4.70;4.30;;;14.70;99.90;;;;;;5031787;28;20617;-82
2023/05/20 03:10:40;;;;;;;4.23;3.93;;;14.70;99.90;;;;;;5030944;28;20188;-81
2023/05/20 03:13:08;;;;;;;4.80;4.43;;;14.60;99.90;;;;;;5032190;28;20177;-80
2023/05/20 03:15:34;;;;;;;4.30;3.97;;;14.60;99.90;;;;;;5032379;28;20169;-79
2023/05/20 03:18:02;;;;;;;4.60;4.20;;;14.50;99.90;;;;;;5032887;28;20293;-80
2023/05/20 03:20:31;;;;;;;4.83;4.33;;;14.60;99.90;;;;;;5031919;28;20185;-81
2023/05/20 03:22:57;;;;;;;4.03;3.77;;;14.60;99.90;;;;;;5035427;28;20656;-81
2023/05/20 03:25:24;;;;;;;4.87;4.50;;;14.70;99.90;;;;;;5048307;28;20695;-79
2023/05/20 03:27:50;;;;;;;4.73;4.33;;;14.80;99.90;;;;;;5037046;28;20178;-80
2023/05/20 03:30:16;;;;;;;5.20;4.70;;;14.80;99.90;;;;;;5036018;28;20226;-82
2023/05/20 03:32:43;;;;;;;4.97;4.67;;;14.70;99.90;;;;;;5035612;28;20686;-82
2023/05/20 03:35:08;;;;;;;5.00;4.60;;;14.60;99.90;;;;;;5036038;28;20178;-80
2023/05/20 03:37:35;;;;;;;4.97;4.60;;;14.60;99.90;;;;;;5036258;28;20179;-81
2023/05/20 03:40:05;;;;;;;5.23;4.80;;;14.60;99.90;;;;;;5036049;28;20682;-81
2023/05/20 03:42:33;;;;;;;5.37;4.87;;;14.60;99.90;;;;;;5035884;28;20205;-80
2023/05/20 03:44:59;;;;;;;4.60;4.30;;;14.60;99.90;;;;;;5035837;28;20203;-81
2023/05/20 03:47:26;;;;;;;5.67;4.90;;;14.60;99.90;;;;;;5036550;28;20180;-79
2023/05/20 03:49:54;;;;;;;4.60;4.20;;;14.60;99.90;;;;;;5036196;28;20177;-80
2023/05/20 03:52:23;;;;;;;5.00;4.53;;;14.60;99.90;;;;;;5034909;28;20191;-81
2023/05/20 03:54:49;;;;;;;5.93;5.33;;;14.60;99.90;;;;;;5040106;28;20177;-80
2023/05/20 03:57:15;;;;;;;4.90;4.60;;;14.50;99.90;;;;;;5037468;28;20706;-80
2023/05/20 03:59:43;;;;;;;5.33;4.83;;;14.60;99.90;;;;;;5037177;28;20209;-80
2023/05/20 04:02:09;;;;;;;4.53;4.23;;;14.50;99.90;;;;;;5035018;28;20223;-80
2023/05/20 04:04:35;;;;;;;5.07;4.67;;;14.50;99.90;;;;;;5037629;28;20172;-79
2023/05/20 04:07:02;;;;;;;4.50;4.20;;;14.50;99.90;;;;;;5034373;28;20186;-80
2023/05/20 04:09:28;;;;;;;5.23;4.83;;;14.50;99.90;;;;;;5035685;28;20227;-79
2023/05/20 04:11:53;;;;;;;5.50;4.57;;;14.60;99.90;;;;;;5035678;28;20569;-81
2023/05/20 04:14:22;;;;;;;5.33;4.93;;;14.60;99.90;;;;;;5035888;28;20207;-80
2023/05/20 04:16:51;;;;;;;4.40;4.10;;;14.70;99.90;;;;;;5039102;28;20583;-80
2023/05/20 04:19:19;;;;;;;4.53;4.20;;;14.70;99.90;;;;;;5043610;28;20174;-79
2023/05/20 04:21:45;;;;;;;5.13;4.63;;;14.70;99.90;;;;;;5043231;28;20200;-81
2023/05/20 04:24:11;;;;;;;5.57;4.30;;;14.80;99.90;;;;;;5036316;28;20181;-79
2023/05/20 04:26:37;;;;;;;5.03;4.63;;;14.80;99.90;;;;;;5035090;28;20203;-80
2023/05/20 04:29:03;;;;;;;4.77;4.47;;;14.80;99.90;;;;;;5034748;28;20196;-79
2023/05/20 04:31:37;;;;;;;4.30;4.10;;;14.90;99.90;;;;;;5035159;28;20204;-79
2023/05/20 04:34:03;;;;;;;4.30;4.00;;;15.00;99.90;;;;;;5034087;28;20169;-80
2023/05/20 04:36:29;;;;;;;4.90;4.50;;;14.90;99.90;;;;;;5035208;28;20176;-81
2023/05/20 04:38:56;;;;;;;5.03;4.60;;;15.00;99.90;;;;;;5034329;28;20265;-81
2023/05/20 04:41:22;;;;;;;5.10;4.70;;;15.00;99.90;;;;;;5040506;28;20192;-81
2023/05/20 04:43:49;;;;;;;4.60;4.20;;;15.00;99.90;;;;;;5035671;28;20173;-80
2023/05/20 04:46:15;;;;;;;4.63;4.20;;;15.00;99.90;;;;;;5033656;28;20187;-82
2023/05/20 04:48:44;;;;;;;4.70;4.40;;;15.00;99.90;;;;;;5035357;28;20235;-79
2023/05/20 04:51:10;;;;;;;5.13;4.73;;;15.00;99.90;;;;;;5033243;28;20198;-79
2023/05/20 04:53:35;;;;;;;4.63;4.33;;;15.10;99.90;;;;;;5034330;28;20943;-80
2023/05/20 04:56:02;;;;;;;4.37;4.07;;;15.20;99.90;;;;;;5032996;28;20196;-79
2023/05/20 04:58:28;;;;;;;4.40;4.00;;;15.30;99.90;;;;;;5034109;28;20207;-79
2023/05/20 05:00:55;;;;;;;4.63;4.23;;;15.30;99.90;;;;;;5033783;28;20177;-81
2023/05/20 05:03:21;;;;;;;4.47;4.07;;;15.40;99.90;;;;;;5034144;28;20202;-80
2023/05/20 05:05:47;;;;;;;5.03;4.40;;;15.30;99.90;;;;;;5033819;28;20173;-79
2023/05/20 05:08:12;;;;;;;4.43;4.13;;;15.40;99.90;;;;;;5033600;28;20176;-80
2023/05/20 05:10:38;;;;;;;4.80;4.47;;;15.40;99.90;;;;;;5034457;28;20188;-80
2023/05/20 05:13:04;;;;;;;4.63;4.30;;;15.50;99.90;;;;;;5044730;28;20188;-81
2023/05/20 05:15:30;;;;;;;4.67;4.20;;;15.60;99.90;;;;;;5034880;28;20258;-79
2023/05/20 05:17:56;;;;;;;4.40;4.00;;;15.50;99.90;;;;;;5033609;28;20172;-80
2023/05/20 05:20:21;;;;;;;4.50;4.20;;;15.50;99.90;;;;;;5033860;28;20765;-79
2023/05/20 05:22:49;;;;;;;4.40;4.10;;;15.50;99.90;;;;;;5035587;28;20242;-84
2023/05/20 05:25:15;;;;;;;4.57;4.20;;;15.50;99.90;;;;;;5038786;28;20189;-80
2023/05/20 05:27:41;;;;;;;5.07;4.67;;;15.60;99.90;;;;;;5036136;28;20177;-81
2023/05/20 05:30:07;;;;;;;4.60;4.23;;;15.70;99.90;;;;;;5033313;28;20185;-80
2023/05/20 05:32:33;;;;;;;5.00;4.50;;;15.80;99.90;;;;;;5034263;28;20698;-82
2023/05/20 05:34:59;;;;;;;5.03;4.63;;;15.90;99.90;;;;;;5037732;28;20177;-80
2023/05/20 05:37:24;;;;;;;4.23;4.00;;;15.90;99.90;;;;;;5037178;28;20238;-80
2023/05/20 05:39:50;;;;;;;4.70;4.40;;;15.80;99.90;;;;;;5032967;28;20172;-80
2023/05/20 05:42:16;;;;;;;4.77;4.37;;;15.80;99.90;;;;;;5037158;28;20525;-80
2023/05/20 05:44:42;;;;;;;4.93;4.53;;;15.70;99.90;;;;;;5040776;28;20187;-78
2023/05/20 05:47:08;;;;;;;4.73;4.33;;;15.70;99.90;;;;;;5041522;28;20205;-77
2023/05/20 05:49:34;;;;;;;4.43;4.13;;;15.80;99.90;;;;;;5034354;28;20181;-80
2023/05/20 05:52:00;;;;;;;4.60;4.20;;;15.80;99.90;;;;;;5038533;28;20199;-80
2023/05/20 05:54:26;;;;;;;4.40;4.07;;;15.90;99.90;;;;;;5035463;28;20522;-81
2023/05/20 05:56:52;;;;;;;4.73;4.40;;;15.90;99.90;;;;;;5036523;28;20176;-79
2023/05/20 05:59:18;;;;;;;5.33;4.80;;;15.90;99.90;;;;;;5033164;28;20169;-80
2023/05/20 06:01:45;;;;;;;5.27;4.77;;;15.80;99.90;;;;;;5033096;28;20214;-80
2023/05/20 06:04:10;;;;;;;4.27;3.97;;;15.80;99.90;;;;;;5033106;28;20186;-79
2023/05/20 06:06:36;;;;;;;5.00;4.70;;;15.80;99.90;;;;;;5032286;28;20179;-80
2023/05/20 06:09:02;;;;;;;4.63;4.33;;;15.90;99.90;;;;;;5032322;28;20227;-79
2023/05/20 06:11:28;;;;;;;4.67;4.37;;;16.00;99.90;;;;;;5032938;28;20644;-79
2023/05/20 06:13:54;;;;;;;5.00;4.60;;;16.10;99.90;;;;;;5032939;28;20176;-80
2023/05/20 06:16:20;;;;;;;4.93;4.53;;;16.20;99.90;;;;;;5033226;28;20603;-79
2023/05/20 06:18:46;;;;;;;5.13;4.40;;;16.50;99.90;;;;;;5033046;28;20258;-80
2023/05/20 06:21:12;;;;;;;4.47;4.17;;;16.70;99.90;;;;;;5030740;28;20208;-79
2023/05/20 06:23:38;;;;;;;4.43;4.07;;;16.80;99.90;;;;;;5031200;28;20281;-81
2023/05/20 06:26:04;;;;;;;4.77;4.37;;;17.00;99.90;;;;;;5032605;28;20183;-79
2023/05/20 06:28:30;;;;;;;4.50;4.20;;;17.30;99.90;;;;;;5032640;28;20184;-81
2023/05/20 06:30:56;;;;;;;5.67;4.27;;;17.30;99.90;;;;;;5043735;28;20218;-80
2023/05/20 06:33:26;;;;;;;4.70;4.40;;;17.30;99.90;;;;;;5032756;28;20219;-81
2023/05/20 06:35:55;;;;;;;4.47;4.17;;;17.20;99.90;;;;;;5032703;28;20172;-80
2023/05/20 06:38:21;;;;;;;4.67;4.37;;;17.10;99.90;;;;;;5032962;28;20658;-80
2023/05/20 06:40:48;;;;;;;4.17;3.97;;;17.10;99.90;;;;;;5032030;28;20524;-81
2023/05/20 06:43:17;;;;;;;4.37;4.07;;;17.10;99.90;;;;;;5032653;28;20213;-81
2023/05/20 06:45:44;;;;;;;5.23;4.87;;;17.20;99.90;;;;;;5036659;28;20165;-81
2023/05/20 06:48:10;;;;;;;4.70;4.40;;;17.30;99.90;;;;;;5035304;28;20191;-80
2023/05/20 06:50:35;;;;;;;5.10;4.70;;;17.30;99.90;;;;;;5032581;28;20184;-81
2023/05/20 06:53:01;;;;;;;5.03;4.53;;;17.20;99.90;;;;;;5031470;28;20194;-81
2023/05/20 06:55:27;;;;;;;5.00;4.60;;;17.20;99.90;;;;;;5033016;28;20678;-80
2023/05/20 06:57:53;;;;;;;4.53;4.13;;;17.40;99.90;;;;;;5038960;28;20172;-80
2023/05/20 07:00:19;;;;;;;4.97;4.67;;;17.50;99.90;;;;;;5036611;28;20172;-80
2023/05/20 07:02:45;;;;;;;4.77;4.37;;;17.50;99.90;;;;;;5036490;28;20289;-79
2023/05/20 07:05:11;;;;;;;4.40;4.10;;;17.50;99.90;;;;;;5036989;28;20200;-80
2023/05/20 07:07:40;;;;;;;5.00;4.60;;;17.60;99.90;;;;;;5038760;28;20177;-80
2023/05/20 07:10:06;;;;;;;4.40;4.10;;;17.70;99.90;;;;;;5045236;28;20302;-80
2023/05/20 07:12:35;;;;;;;4.73;4.40;;;17.70;99.90;;;;;;5045047;28;20176;-80
2023/05/20 07:15:01;;;;;;;5.33;4.83;;;17.90;99.90;;;;;;5039726;28;20172;-82
2023/05/20 07:17:28;;;;;;;4.90;4.60;;;18.10;99.90;;;;;;5043423;28;20260;-80
2023/05/20 07:19:55;;;;;;;4.50;4.20;;;18.00;99.90;;;;;;5038427;28;20724;-80
2023/05/20 07:22:21;;;;;;;5.13;4.73;;;18.10;99.90;;;;;;5038036;28;20211;-81
2023/05/20 07:24:47;;;;;;;5.67;5.17;;;18.20;99.90;;;;;;5037659;28;20179;-79
2023/05/20 07:27:13;;;;;;;5.00;4.60;;;18.30;99.90;;;;;;5035672;28;20175;-80
2023/05/20 07:29:39;;;;;;;4.40;4.10;;;18.40;99.90;;;;;;5034362;28;20165;-79
2023/05/20 07:32:05;;;;;;;6.00;5.50;;;18.50;99.90;;;;;;5035905;28;20247;-80
2023/05/20 07:34:31;;;;;;;5.07;4.67;;;18.60;99.90;;;;;;5035937;28;20659;-79
2023/05/20 07:36:57;;;;;;;4.80;4.43;;;18.60;99.90;;;;;;5035892;28;20247;-82
2023/05/20 07:39:23;;;;;;;4.40;4.10;;;18.60;99.90;;;;;;5035814;28;20217;-79
2023/05/20 07:41:49;;;;;;;4.10;3.90;;;18.90;99.90;;;;;;5035627;28;20211;-79
2023/05/20 07:44:17;;;;;;;4.17;3.87;;;19.10;99.90;;;;;;5035762;28;20656;-81
2023/05/20 07:46:44;;;;;;;4.93;4.60;;;19.20;99.90;;;;;;5036492;28;20664;-80
2023/05/20 07:49:10;;;;;;;5.03;4.17;;;19.40;99.90;;;;;;5038466;28;20280;-79
2023/05/20 07:51:36;;;;;;;4.60;4.30;;;19.30;99.90;;;;;;5035930;28;20644;-80
2023/05/20 07:54:02;;;;;;;4.97;4.57;;;19.40;99.90;;;;;;5035659;28;20181;-79
2023/05/20 07:56:28;;;;;;;5.47;4.63;;;19.30;99.90;;;;;;5034388;28;20181;-79
2023/05/20 07:58:58;;;;;;;5.37;4.93;;;19.40;99.90;;;;;;5035487;28;20176;-82
2023/05/20 08:01:25;;;;;;;4.40;4.00;;;19.50;99.90;;;;;;5035557;28;20196;-80
2023/05/20 08:03:52;;;;;;;4.37;4.07;;;19.60;99.90;;;;;;5035633;28;20173;-81
2023/05/20 08:06:19;;;;;;;4.80;4.47;;;19.50;99.90;;;;;;5040020;28;20180;-79
2023/05/20 08:08:45;;;;;;;4.53;4.20;;;19.40;99.90;;;;;;5044171;28;20235;-80
2023/05/20 08:11:12;;;;;;;4.87;4.07;;;19.50;99.90;;;;;;5036989;28;20260;-79
2023/05/20 08:13:38;;;;;;;5.70;4.90;;;19.30;99.90;;;;;;5035312;28;20208;-81
2023/05/20 08:16:07;;;;;;;4.90;4.60;;;19.20;99.90;;;;;;5034505;28;20185;-80
2023/05/20 08:18:37;;;;;;;5.47;5.07;;;19.40;99.90;;;;;;5033774;28;20176;-79
2023/05/20 08:21:05;;;;;;;4.53;4.23;;;19.70;99.90;;;;;;5034789;28;20180;-79
2023/05/20 08:23:31;;;;;;;5.00;4.50;;;20.00;99.90;;;;;;5034555;28;20203;-79
2023/05/20 08:26:00;;;;;;;4.93;4.63;;;20.30;99.90;;;;;;5034978;28;20168;-79
2023/05/20 08:28:26;;;;;;;5.57;4.67;;;20.60;99.90;;;;;;5033898;28;20319;-79
2023/05/20 08:30:52;;;;;;;4.33;4.03;;;20.90;99.90;;;;;;5037173;28;20247;-79
2023/05/20 08:33:18;;;;;;;4.83;4.50;;;20.50;99.90;;;;;;5038518;28;20172;-79
2023/05/20 08:35:45;;;;;;;5.20;4.80;;;20.40;99.90;;;;;;5037987;28;20965;-80
2023/05/20 08:38:11;;;;;;;4.50;4.20;;;20.50;99.90;;;;;;5047482;28;20175;-80
2023/05/20 08:40:36;;;;;;;5.63;4.70;;;20.70;99.90;;;;;;5042312;28;20177;-79
2023/05/20 08:43:03;;;;;;;5.57;5.07;;;20.80;99.90;;;;;;5042284;28;20936;-79
2023/05/20 08:45:32;;;;;;;4.93;4.53;;;21.00;99.90;;;;;;5036374;28;20192;-82
2023/05/20 08:47:59;;;;;;;4.80;4.50;;;21.10;99.90;;;;;;5033557;28;20188;-79
2023/05/20 08:50:24;;;;;;;4.80;4.40;;;21.10;99.90;;;;;;5034980;28;20740;-81
2023/05/20 08:52:51;;;;;;;5.03;4.73;;;21.20;99.90;;;;;;5034839;28;20259;-79
2023/05/20 08:55:21;;;;;;;5.35;4.38;;;21.40;99.90;;;;;;5034291;28;20259;-80
2023/05/20 08:57:53;;;;;;;4.37;4.17;;;21.40;99.90;;;;;;5037009;28;20173;-80
2023/05/20 09:00:22;;;;;;;4.40;4.10;;;21.40;99.90;;;;;;5037232;28;20184;-80
2023/05/20 09:02:48;;;;;;;4.93;4.53;;;21.30;99.90;;;;;;5035749;28;20250;-80
2023/05/20 09:05:14;;;;;;;4.90;4.50;;;21.50;99.90;;;;;;5040451;28;20193;-80
2023/05/20 09:07:42;;;;;;;4.80;4.40;;;21.50;99.90;;;;;;5038579;28;20189;-81
2023/05/20 09:10:08;;;;;;;4.53;4.17;;;21.30;99.90;;;;;;5034996;28;20672;-79
2023/05/20 09:12:35;;;;;;;5.70;5.30;;;21.50;99.90;;;;;;5034834;28;20176;-82
2023/05/20 09:15:01;;;;;;;5.63;4.90;;;21.60;99.90;;;;;;5032719;28;20263;-81
2023/05/20 09:17:26;;;;;;;5.00;4.50;;;21.70;99.90;;;;;;5034654;28;20207;-79
2023/05/20 09:19:53;;;;;;;4.70;4.30;;;21.70;99.90;;;;;;5033315;28;20227;-80
2023/05/20 09:22:26;;;;;;;4.83;4.53;;;21.60;99.90;;;;;;5033893;28;20590;-80
2023/05/20 09:24:53;;;;;;;4.53;4.23;;;21.60;99.90;;;;;;5034451;28;20168;-80
2023/05/20 09:27:20;;;;;;;5.53;5.07;;;21.60;99.90;;;;;;5037992;28;20176;-80
2023/05/20 09:29:49;;;;;;;4.93;4.53;;;21.70;99.90;;;;;;5040071;28;20180;-80
2023/05/20 09:32:16;;;;;;;5.27;4.87;;;21.90;99.90;;;;;;5033027;28;20184;-79
2023/05/20 09:34:44;;;;;;;4.93;4.40;;;21.90;99.90;;;;;;5033960;28;20187;-79
2023/05/20 09:37:11;;;;;;;5.40;5.00;;;22.00;99.90;;;;;;5034377;28;20177;-79
2023/05/20 09:39:58;;;;;;;5.30;4.80;;;22.00;99.90;;;;;;5034105;28;20172;-80
2023/05/20 09:42:37;;;;;;;5.57;5.10;;;22.10;99.90;;;;;;5033965;28;20306;-79
2023/05/20 09:45:04;;;;;;;4.90;4.50;;;22.20;99.90;;;;;;5034019;28;20157;-79
2023/05/20 09:47:30;;;;;;;5.57;5.07;;;22.00;99.90;;;;;;5034445;28;20668;-81
2023/05/20 09:49:57;;;;;;;6.17;5.57;;;22.00;99.90;;;;;;5034385;28;20161;-80
2023/05/20 09:52:25;;;;;;;6.23;5.73;;;21.90;99.90;;;;;;5035017;28;20625;-79
2023/05/20 09:54:55;;;;;;;5.27;4.87;;;21.90;99.90;;;;;;5033677;28;20180;-79
2023/05/20 09:57:21;;;;;;;6.47;5.33;;;21.90;99.90;;;;;;5035043;28;20196;-79
2023/05/20 09:59:49;;;;;;;5.33;4.83;;;21.90;99.90;;;;;;5042972;28;20165;-80
2023/05/20 10:02:15;;;;;;;5.20;4.80;;;22.00;99.90;;;;;;5053395;28;20216;-79
2023/05/20 10:04:45;;;;;;;4.60;4.30;;;22.10;99.90;;;;;;5055074;28;20175;-79
2023/05/20 10:07:25;;;;;;;4.97;4.67;;;22.20;99.90;;;;;;5042544;28;20161;-80
2023/05/20 10:09:54;;;;;;;4.88;4.47;;;22.30;99.90;;;;;;5033233;28;20224;-81
2023/05/20 10:12:44;;;;;;;4.60;4.30;;;22.50;99.90;;;;;;5033771;28;20168;-81
2023/05/20 10:15:16;;;;;;;5.03;4.63;;;22.40;99.90;;;;;;5032706;28;20191;-79
2023/05/20 10:17:54;;;;;;;4.40;4.00;;;22.30;99.90;;;;;;5039935;28;20192;-81
2023/05/20 10:20:21;;;;;;;6.20;5.13;;;22.30;99.90;;;;;;5036773;28;20176;-81
2023/05/20 10:22:56;;;;;;;5.30;4.20;;;22.50;99.90;;;;;;5033253;28;20227;-82
2023/05/20 10:25:27;;;;;;;5.28;4.88;;;22.80;99.90;;;;;;5033657;28;20243;-80
2023/05/20 10:28:06;;;;;;;4.45;4.15;;;23.00;99.90;;;;;;5033952;28;20831;-80
2023/05/20 10:30:32;;;;;;;4.70;4.30;;;23.00;99.10;;;;;;5033308;28;20152;-80
2023/05/20 10:33:04;;;;;;;4.53;4.22;;;23.10;98.90;;;;;;5033500;28;20179;-80
2023/05/20 10:35:30;;;;;;;4.68;4.38;;;23.10;98.90;;;;;;5032427;28;20188;-80
2023/05/20 10:38:10;;;;;;;4.60;4.30;;;23.00;98.70;;;;;;5041352;28;20179;-83
2023/05/20 10:40:36;;;;;;;5.82;4.50;;;23.00;98.70;;;;;;5045236;28;20196;-81
2023/05/20 10:43:10;;;;;;;5.32;4.82;;;23.00;99.10;;;;;;5035478;28;20214;-80
2023/05/20 10:45:47;;;;;;;4.97;4.47;;;23.00;98.50;;;;;;5038975;28;20200;-81
2023/05/20 10:48:24;;;;;;;5.03;4.28;;;22.90;98.90;;;;;;5034799;28;20160;-81
2023/05/20 10:50:50;;;;;;;5.45;4.60;;;22.90;99.20;;;;;;5038517;28;20543;-80
2023/05/20 10:53:15;;;;;;;5.45;4.85;;;22.90;98.40;;;;;;5032445;28;20187;-81
2023/05/20 10:55:50;;;;;;;4.72;4.32;;;23.00;98.80;;;;;;5032550;28;20279;-80
2023/05/20 10:58:17;;;;;;;5.03;4.53;;;23.10;99.00;;;;;;5034141;28;20160;-79
2023/05/20 11:00:43;;;;;;;5.88;4.43;;;23.30;98.60;;;;;;5031847;28;20180;-80
2023/05/20 11:03:11;;;;;;;4.60;4.30;;;23.60;98.30;;;;;;5033724;28;20293;-79
2023/05/20 11:05:39;;;;;;;5.20;4.70;;;23.80;97.80;;;;;;5033717;28;20184;-82
2023/05/20 11:08:08;;;;;;;4.57;4.28;;;23.90;97.70;;;;;;5033276;28;20212;-80
2023/05/20 11:10:35;;;;;;;5.03;4.63;;;23.80;97.30;;;;;;5033587;28;20187;-79
2023/05/20 11:13:03;;;;;;;4.40;4.10;;;23.90;97.20;;;;;;5037997;28;20168;-79
2023/05/20 11:15:30;;;;;;;4.85;4.25;;;23.90;97.50;;;;;;5035307;28;20176;-80
2023/05/20 11:18:03;;;;;;;4.82;4.43;;;24.00;97.40;;;;;;5033877;28;20171;-80
2023/05/20 11:20:29;;;;;;;5.00;4.60;;;24.10;97.90;;;;;;5034122;28;20248;-80
2023/05/20 11:22:55;;;;;;;4.60;4.30;;;24.20;97.00;;;;;;5035047;28;20219;-79
2023/05/20 11:25:22;;;;;;;4.95;4.55;;;24.20;96.80;;;;;;5040165;28;20232;-79
2023/05/20 11:27:49;;;;;;;5.05;4.65;;;24.20;97.00;;;;;;5046300;28;20192;-80
2023/05/20 11:30:16;;;;;;;5.13;4.72;;;24.00;96.60;;;;;;5047300;28;20542;-80
2023/05/20 11:33:04;;;;;;;5.20;4.57;;;24.00;96.80;;;;;;5035794;28;20196;-81
2023/05/20 11:35:32;;;;;;;5.80;5.20;;;24.00;96.50;;;;;;5032876;28;20652;-81
2023/05/20 11:38:02;;;;;;;4.72;4.43;;;24.00;96.70;;;;;;5033274;28;20177;-81
2023/05/20 11:40:30;;;;;;;5.00;4.50;;;23.90;96.50;;;;;;5035613;28;20171;-80
2023/05/20 11:42:58;;;;;;;5.00;4.60;;;23.90;96.60;;;;;;5038640;28;20835;-81
2023/05/20 11:45:26;;;;;;;5.38;4.68;;;23.80;96.80;;;;;;5036648;28;20702;-81
2023/05/20 11:48:02;;;;;;;4.80;4.43;;;23.70;96.80;;;;;;5036515;28;20540;-82
2023/05/20 11:50:28;;;;;;;5.68;5.18;;;23.60;96.80;;;;;;5036500;28;20164;-81
2023/05/20 11:52:58;;;;;;;5.68;4.72;;;23.60;96.90;;;;;;5039683;28;20271;-82
2023/05/20 11:55:25;;;;;;;4.85;4.53;;;23.40;97.20;;;;;;5038533;28;20169;-80
2023/05/20 11:57:51;;;;;;;4.75;4.35;;;23.30;97.00;;;;;;5037098;28;20535;-82
2023/05/20 12:00:20;;;;;;;5.38;4.97;;;23.20;96.80;;;;;;5036940;28;20231;-84
2023/05/20 12:02:46;;;;;;;5.50;4.97;;;23.10;96.00;;;;;;5036092;28;20259;-80
2023/05/20 12:05:12;;;;;;;5.03;4.70;;;23.10;96.20;;;;;;5036060;28;20200;-80
2023/05/20 12:07:39;;;;;;;6.05;5.05;;;23.10;96.40;;;;;;5036037;28;20234;-82
2023/05/20 12:10:06;;;;;;;4.88;4.47;;;23.20;96.10;;;;;;5037530;28;20291;-81
2023/05/20 12:12:32;;;;;;;5.65;5.15;;;22.80;95.70;;;;;;5040534;28;20255;-82
2023/05/20 12:14:57;;;;;;;5.13;4.63;;;23.20;95.80;;;;;;5036235;28;20747;-82
2023/05/20 12:17:24;;;;;;;5.60;4.78;;;23.20;95.90;;;;;;5037377;28;20660;-81
2023/05/20 12:19:49;;;;;;;5.90;5.30;;;23.00;96.10;;;;;;5039298;28;20177;-84
2023/05/20 12:22:15;;;;;;;5.28;4.88;;;23.00;96.30;;;;;;5036675;28;20208;-80
2023/05/20 12:24:41;;;;;;;5.50;5.00;;;22.90;96.40;;;;;;5036479;28;20171;-83
2023/05/20 12:27:07;;;;;;;4.90;4.60;;;22.90;96.70;;;;;;5035976;28;20187;-83
2023/05/20 12:29:32;;;;;;;7.45;5.25;;;22.90;97.00;;;;;;5035712;28;20185;-82
2023/05/20 12:31:59;;;;;;;5.82;5.30;;;22.80;96.90;;;;;;5034785;28;20188;-79
2023/05/20 12:34:25;;;;;;;5.60;5.10;;;22.70;96.90;;;;;;5036043;28;20265;-81
2023/05/20 12:36:51;;;;;;;4.60;4.30;;;22.80;96.60;;;;;;5036100;28;20176;-84
2023/05/20 12:39:18;;;;;;;5.05;4.65;;;22.80;96.40;;;;;;5036518;28;20203;-81
2023/05/20 12:41:44;;;;;;;5.43;4.93;;;22.90;96.00;;;;;;5035845;28;20570;-79
2023/05/20 12:44:10;;;;;;;5.45;5.05;;;23.00;96.10;;;;;;5036086;28;20181;-81
2023/05/20 12:46:37;;;;;;;5.15;4.75;;;23.10;96.20;;;;;;5036105;28;20175;-81
2023/05/20 12:49:03;;;;;;;5.35;4.88;;;23.20;96.30;;;;;;5036941;28;20539;-79